sensor_id;sensor_type;location;lat;lon;timestamp;P1;durP1;ratioP1;P2;durP2;ratioP2
20523;SDS011;10420;48.542;12.270;2023-04-24T00:01:11;6.07;;;2.93;;
20523;SDS011;10420;48.542;12.270;2023-04-24T00:06:13;5.03;;;2.83;;
20523;SDS011;10420;48.542;12.270;2023-04-24T00:11:13;4.23;;;2.57;;
20523;SDS011;10420;48.542;12.270;2023-04-24T00:16:14;4.43;;;2.80;;
20523;SDS011;10420;48.542;12.270;2023-04-24T00:21:15;3.97;;;2.87;;
20523;SDS011;10420;48.542;12.270;2023-04-24T00:26:19;4.53;;;3.33;;
20523;SDS011;10420;48.542;12.270;2023-04-24T00:31:19;7.53;;;3.10;;
20523;SDS011;10420;48.542;12.270;2023-04-24T00:36:20;4.97;;;2.90;;
20523;SDS011;10420;48.542;12.270;2023-04-24T00:41:21;4.93;;;2.90;;
20523;SDS011;10420;48.542;12.270;2023-04-24T00:46:22;10.93;;;3.23;;
20523;SDS011;10420;48.542;12.270;2023-04-24T00:51:23;9.17;;;3.97;;
20523;SDS011;10420;48.542;12.270;2023-04-24T00:56:24;11.03;;;4.13;;
20523;SDS011;10420;48.542;12.270;2023-04-24T01:01:25;4.57;;;3.73;;
20523;SDS011;10420;48.542;12.270;2023-04-24T01:06:29;8.20;;;3.20;;
20523;SDS011;10420;48.542;12.270;2023-04-24T01:11:33;3.90;;;2.70;;
20523;SDS011;10420;48.542;12.270;2023-04-24T01:16:33;4.57;;;2.90;;
20523;SDS011;10420;48.542;12.270;2023-04-24T01:21:36;6.53;;;2.80;;
20523;SDS011;10420;48.542;12.270;2023-04-24T01:26:37;6.20;;;2.30;;
20523;SDS011;10420;48.542;12.270;2023-04-24T01:31:38;4.87;;;2.53;;
20523;SDS011;10420;48.542;12.270;2023-04-24T01:36:40;4.90;;;2.50;;
20523;SDS011;10420;48.542;12.270;2023-04-24T01:41:42;5.67;;;2.50;;
20523;SDS011;10420;48.542;12.270;2023-04-24T01:46:43;7.33;;;2.40;;
20523;SDS011;10420;48.542;12.270;2023-04-24T01:51:44;4.03;;;2.10;;
20523;SDS011;10420;48.542;12.270;2023-04-24T01:56:45;11.63;;;2.70;;
20523;SDS011;10420;48.542;12.270;2023-04-24T02:01:46;5.90;;;2.37;;
20523;SDS011;10420;48.542;12.270;2023-04-24T02:06:48;4.80;;;2.20;;
20523;SDS011;10420;48.542;12.270;2023-04-24T02:11:48;2.77;;;1.80;;
20523;SDS011;10420;48.542;12.270;2023-04-24T02:16:49;2.60;;;1.83;;
20523;SDS011;10420;48.542;12.270;2023-04-24T02:21:50;5.07;;;2.07;;
20523;SDS011;10420;48.542;12.270;2023-04-24T02:26:50;10.50;;;2.20;;
20523;SDS011;10420;48.542;12.270;2023-04-24T02:31:51;4.30;;;1.97;;
20523;SDS011;10420;48.542;12.270;2023-04-24T02:36:51;1.93;;;1.77;;
20523;SDS011;10420;48.542;12.270;2023-04-24T02:41:53;2.80;;;2.00;;
20523;SDS011;10420;48.542;12.270;2023-04-24T02:46:54;7.37;;;2.20;;
20523;SDS011;10420;48.542;12.270;2023-04-24T02:51:55;3.13;;;1.77;;
20523;SDS011;10420;48.542;12.270;2023-04-24T02:56:55;4.00;;;1.80;;
20523;SDS011;10420;48.542;12.270;2023-04-24T03:01:57;3.43;;;2.10;;
20523;SDS011;10420;48.542;12.270;2023-04-24T03:06:57;2.53;;;2.23;;
20523;SDS011;10420;48.542;12.270;2023-04-24T03:11:58;3.33;;;1.83;;
20523;SDS011;10420;48.542;12.270;2023-04-24T03:17:00;3.80;;;1.90;;
20523;SDS011;10420;48.542;12.270;2023-04-24T03:22:02;2.00;;;1.67;;
20523;SDS011;10420;48.542;12.270;2023-04-24T03:27:02;3.30;;;2.10;;
20523;SDS011;10420;48.542;12.270;2023-04-24T03:32:03;5.90;;;2.00;;
20523;SDS011;10420;48.542;12.270;2023-04-24T03:37:04;3.03;;;1.60;;
20523;SDS011;10420;48.542;12.270;2023-04-24T03:42:04;5.30;;;1.57;;
20523;SDS011;10420;48.542;12.270;2023-04-24T03:47:05;2.50;;;1.60;;
20523;SDS011;10420;48.542;12.270;2023-04-24T03:52:06;2.20;;;2.00;;
20523;SDS011;10420;48.542;12.270;2023-04-24T03:57:06;8.40;;;3.30;;
20523;SDS011;10420;48.542;12.270;2023-04-24T04:02:07;4.80;;;2.17;;
20523;SDS011;10420;48.542;12.270;2023-04-24T04:07:07;3.50;;;1.20;;
20523;SDS011;10420;48.542;12.270;2023-04-24T04:12:08;3.43;;;1.70;;
20523;SDS011;10420;48.542;12.270;2023-04-24T04:17:09;2.00;;;1.27;;
20523;SDS011;10420;48.542;12.270;2023-04-24T04:22:09;2.63;;;1.50;;
20523;SDS011;10420;48.542;12.270;2023-04-24T04:27:10;3.40;;;1.30;;
20523;SDS011;10420;48.542;12.270;2023-04-24T04:32:11;2.83;;;1.33;;
20523;SDS011;10420;48.542;12.270;2023-04-24T04:37:11;1.77;;;1.50;;
20523;SDS011;10420;48.542;12.270;2023-04-24T04:42:12;2.80;;;1.33;;
20523;SDS011;10420;48.542;12.270;2023-04-24T04:47:13;1.40;;;1.30;;
20523;SDS011;10420;48.542;12.270;2023-04-24T04:52:14;2.80;;;1.07;;
20523;SDS011;10420;48.542;12.270;2023-04-24T04:57:17;2.33;;;1.43;;
20523;SDS011;10420;48.542;12.270;2023-04-24T05:02:17;2.63;;;1.50;;
20523;SDS011;10420;48.542;12.270;2023-04-24T05:07:18;1.30;;;1.20;;
20523;SDS011;10420;48.542;12.270;2023-04-24T05:12:19;1.43;;;1.30;;
20523;SDS011;10420;48.542;12.270;2023-04-24T05:17:19;3.93;;;1.30;;
20523;SDS011;10420;48.542;12.270;2023-04-24T05:22:20;1.23;;;1.00;;
20523;SDS011;10420;48.542;12.270;2023-04-24T05:27:21;2.77;;;1.10;;
20523;SDS011;10420;48.542;12.270;2023-04-24T05:32:22;1.50;;;1.40;;
20523;SDS011;10420;48.542;12.270;2023-04-24T05:37:22;1.57;;;1.20;;
20523;SDS011;10420;48.542;12.270;2023-04-24T05:42:23;2.93;;;1.30;;
20523;SDS011;10420;48.542;12.270;2023-04-24T05:47:25;4.77;;;1.00;;
20523;SDS011;10420;48.542;12.270;2023-04-24T05:52:26;4.83;;;1.30;;
20523;SDS011;10420;48.542;12.270;2023-04-24T05:57:26;1.23;;;1.13;;
20523;SDS011;10420;48.542;12.270;2023-04-24T06:02:27;1.93;;;1.30;;
20523;SDS011;10420;48.542;12.270;2023-04-24T06:07:32;1.20;;;1.10;;
20523;SDS011;10420;48.542;12.270;2023-04-24T06:12:32;5.07;;;1.20;;
20523;SDS011;10420;48.542;12.270;2023-04-24T06:17:33;1.83;;;1.30;;
20523;SDS011;10420;48.542;12.270;2023-04-24T06:22:34;2.50;;;1.20;;
20523;SDS011;10420;48.542;12.270;2023-04-24T06:27:35;1.33;;;1.20;;
20523;SDS011;10420;48.542;12.270;2023-04-24T06:32:35;5.03;;;1.23;;
20523;SDS011;10420;48.542;12.270;2023-04-24T06:37:36;3.13;;;1.33;;
20523;SDS011;10420;48.542;12.270;2023-04-24T06:42:37;2.53;;;1.57;;
20523;SDS011;10420;48.542;12.270;2023-04-24T06:47:37;2.40;;;1.33;;
20523;SDS011;10420;48.542;12.270;2023-04-24T06:52:38;2.03;;;1.40;;
20523;SDS011;10420;48.542;12.270;2023-04-24T06:57:39;1.93;;;1.10;;
20523;SDS011;10420;48.542;12.270;2023-04-24T07:02:40;1.00;;;1.00;;
20523;SDS011;10420;48.542;12.270;2023-04-24T07:07:41;1.60;;;1.20;;
20523;SDS011;10420;48.542;12.270;2023-04-24T07:12:41;2.80;;;1.30;;
20523;SDS011;10420;48.542;12.270;2023-04-24T07:17:42;2.87;;;1.50;;
20523;SDS011;10420;48.542;12.270;2023-04-24T07:22:44;3.57;;;1.83;;
20523;SDS011;10420;48.542;12.270;2023-04-24T07:27:45;2.23;;;1.30;;
20523;SDS011;10420;48.542;12.270;2023-04-24T07:32:45;2.63;;;1.43;;
20523;SDS011;10420;48.542;12.270;2023-04-24T07:37:46;2.85;;;1.00;;
20523;SDS011;10420;48.542;12.270;2023-04-24T07:42:47;2.20;;;1.10;;
20523;SDS011;10420;48.542;12.270;2023-04-24T07:47:48;0.80;;;0.80;;
20523;SDS011;10420;48.542;12.270;2023-04-24T07:52:50;2.80;;;1.00;;
20523;SDS011;10420;48.542;12.270;2023-04-24T07:57:51;3.90;;;1.80;;
20523;SDS011;10420;48.542;12.270;2023-04-24T08:02:51;6.40;;;1.25;;
20523;SDS011;10420;48.542;12.270;2023-04-24T08:07:52;4.57;;;2.30;;
20523;SDS011;10420;48.542;12.270;2023-04-24T08:12:53;2.03;;;1.40;;
20523;SDS011;10420;48.542;12.270;2023-04-24T08:17:55;1.67;;;1.20;;
20523;SDS011;10420;48.542;12.270;2023-04-24T08:22:56;3.13;;;1.10;;
20523;SDS011;10420;48.542;12.270;2023-04-24T08:27:57;4.07;;;1.30;;
20523;SDS011;10420;48.542;12.270;2023-04-24T08:32:58;2.95;;;1.40;;
20523;SDS011;10420;48.542;12.270;2023-04-24T08:37:58;5.10;;;1.48;;
20523;SDS011;10420;48.542;12.270;2023-04-24T08:42:59;1.33;;;1.08;;
20523;SDS011;10420;48.542;12.270;2023-04-24T08:48:00;3.23;;;1.03;;
20523;SDS011;10420;48.542;12.270;2023-04-24T08:53:02;4.73;;;1.17;;
20523;SDS011;10420;48.542;12.270;2023-04-24T08:58:04;6.03;;;1.20;;
20523;SDS011;10420;48.542;12.270;2023-04-24T09:03:05;2.45;;;1.15;;
20523;SDS011;10420;48.542;12.270;2023-04-24T09:08:06;1.40;;;1.00;;
20523;SDS011;10420;48.542;12.270;2023-04-24T09:13:07;2.70;;;1.70;;
20523;SDS011;10420;48.542;12.270;2023-04-24T09:18:11;2.73;;;1.67;;
20523;SDS011;10420;48.542;12.270;2023-04-24T09:23:16;2.70;;;1.37;;
20523;SDS011;10420;48.542;12.270;2023-04-24T09:28:17;2.70;;;1.10;;
20523;SDS011;10420;48.542;12.270;2023-04-24T09:33:18;4.70;;;1.20;;
20523;SDS011;10420;48.542;12.270;2023-04-24T09:38:19;3.53;;;1.20;;
20523;SDS011;10420;48.542;12.270;2023-04-24T09:43:30;1.30;;;1.20;;
20523;SDS011;10420;48.542;12.270;2023-04-24T09:48:33;4.30;;;1.30;;
20523;SDS011;10420;48.542;12.270;2023-04-24T09:53:35;1.75;;;1.40;;
20523;SDS011;10420;48.542;12.270;2023-04-24T09:58:36;2.00;;;1.60;;
20523;SDS011;10420;48.542;12.270;2023-04-24T10:03:37;1.88;;;1.48;;
20523;SDS011;10420;48.542;12.270;2023-04-24T10:08:37;3.35;;;1.80;;
20523;SDS011;10420;48.542;12.270;2023-04-24T10:13:38;4.85;;;1.98;;
20523;SDS011;10420;48.542;12.270;2023-04-24T10:18:40;1.98;;;1.60;;
20523;SDS011;10420;48.542;12.270;2023-04-24T10:23:41;5.13;;;1.73;;
20523;SDS011;10420;48.542;12.270;2023-04-24T10:28:44;3.22;;;1.63;;
20523;SDS011;10420;48.542;12.270;2023-04-24T10:33:45;3.13;;;1.60;;
20523;SDS011;10420;48.542;12.270;2023-04-24T10:38:46;2.67;;;1.67;;
20523;SDS011;10420;48.542;12.270;2023-04-24T10:44:08;4.13;;;2.15;;
20523;SDS011;10420;48.542;12.270;2023-04-24T10:49:09;4.03;;;1.88;;
20523;SDS011;10420;48.542;12.270;2023-04-24T10:54:29;3.53;;;2.00;;
20523;SDS011;10420;48.542;12.270;2023-04-24T10:59:46;3.90;;;2.08;;
20523;SDS011;10420;48.542;12.270;2023-04-24T11:04:49;1.67;;;1.40;;
20523;SDS011;10420;48.542;12.270;2023-04-24T11:09:57;2.40;;;1.83;;
20523;SDS011;10420;48.542;12.270;2023-04-24T11:15:01;2.78;;;1.70;;
20523;SDS011;10420;48.542;12.270;2023-04-24T11:20:09;2.25;;;1.50;;
20523;SDS011;10420;48.542;12.270;2023-04-24T11:25:11;3.67;;;1.77;;
20523;SDS011;10420;48.542;12.270;2023-04-24T11:30:12;4.13;;;2.30;;
20523;SDS011;10420;48.542;12.270;2023-04-24T11:35:18;2.58;;;1.92;;
20523;SDS011;10420;48.542;12.270;2023-04-24T11:40:27;3.13;;;1.70;;
20523;SDS011;10420;48.542;12.270;2023-04-24T11:45:28;1.75;;;1.50;;
20523;SDS011;10420;48.542;12.270;2023-04-24T11:50:30;3.58;;;2.13;;
20523;SDS011;10420;48.542;12.270;2023-04-24T11:55:31;17.55;;;2.97;;
20523;SDS011;10420;48.542;12.270;2023-04-24T12:00:32;8.70;;;2.50;;
20523;SDS011;10420;48.542;12.270;2023-04-24T12:05:36;17.63;;;2.40;;
20523;SDS011;10420;48.542;12.270;2023-04-24T12:10:37;3.33;;;2.20;;
20523;SDS011;10420;48.542;12.270;2023-04-24T12:15:39;6.60;;;1.90;;
20523;SDS011;10420;48.542;12.270;2023-04-24T12:20:40;1.50;;;1.27;;
20523;SDS011;10420;48.542;12.270;2023-04-24T12:25:41;2.77;;;1.30;;
20523;SDS011;10420;48.542;12.270;2023-04-24T12:30:48;2.97;;;1.57;;
20523;SDS011;10420;48.542;12.270;2023-04-24T12:35:53;2.97;;;1.87;;
20523;SDS011;10420;48.542;12.270;2023-04-24T12:41:01;2.10;;;1.45;;
20523;SDS011;10420;48.542;12.270;2023-04-24T12:46:04;1.70;;;1.50;;
20523;SDS011;10420;48.542;12.270;2023-04-24T12:51:05;2.00;;;1.67;;
20523;SDS011;10420;48.542;12.270;2023-04-24T12:56:06;1.83;;;1.73;;
20523;SDS011;10420;48.542;12.270;2023-04-24T13:01:07;5.15;;;2.10;;
20523;SDS011;10420;48.542;12.270;2023-04-24T13:06:07;2.25;;;1.80;;
20523;SDS011;10420;48.542;12.270;2023-04-24T13:11:08;3.38;;;1.67;;
20523;SDS011;10420;48.542;12.270;2023-04-24T13:16:09;2.88;;;1.85;;
20523;SDS011;10420;48.542;12.270;2023-04-24T13:21:09;3.80;;;1.60;;
20523;SDS011;10420;48.542;12.270;2023-04-24T13:26:10;3.50;;;2.08;;
20523;SDS011;10420;48.542;12.270;2023-04-24T13:31:11;6.10;;;2.13;;
20523;SDS011;10420;48.542;12.270;2023-04-24T13:36:11;3.58;;;2.20;;
20523;SDS011;10420;48.542;12.270;2023-04-24T13:41:12;2.55;;;2.00;;
20523;SDS011;10420;48.542;12.270;2023-04-24T13:46:13;5.07;;;2.10;;
20523;SDS011;10420;48.542;12.270;2023-04-24T13:51:13;3.88;;;2.10;;
20523;SDS011;10420;48.542;12.270;2023-04-24T13:56:14;1.92;;;1.58;;
20523;SDS011;10420;48.542;12.270;2023-04-24T14:01:15;2.22;;;1.70;;
20523;SDS011;10420;48.542;12.270;2023-04-24T14:06:16;2.25;;;1.60;;
20523;SDS011;10420;48.542;12.270;2023-04-24T14:11:17;4.50;;;1.50;;
20523;SDS011;10420;48.542;12.270;2023-04-24T14:16:18;1.33;;;1.20;;
20523;SDS011;10420;48.542;12.270;2023-04-24T14:21:19;2.67;;;1.67;;
20523;SDS011;10420;48.542;12.270;2023-04-24T14:26:20;1.75;;;1.65;;
20523;SDS011;10420;48.542;12.270;2023-04-24T14:31:21;2.72;;;1.50;;
20523;SDS011;10420;48.542;12.270;2023-04-24T14:36:22;7.97;;;3.03;;
20523;SDS011;10420;48.542;12.270;2023-04-24T14:41:23;7.80;;;3.13;;
20523;SDS011;10420;48.542;12.270;2023-04-24T14:46:23;3.65;;;2.40;;
20523;SDS011;10420;48.542;12.270;2023-04-24T14:51:24;4.20;;;2.80;;
20523;SDS011;10420;48.542;12.270;2023-04-24T14:56:25;5.20;;;3.17;;
20523;SDS011;10420;48.542;12.270;2023-04-24T15:01:26;8.38;;;2.75;;
20523;SDS011;10420;48.542;12.270;2023-04-24T15:06:26;9.95;;;3.15;;
20523;SDS011;10420;48.542;12.270;2023-04-24T15:11:27;6.40;;;2.92;;
20523;SDS011;10420;48.542;12.270;2023-04-24T15:16:28;4.47;;;2.30;;
20523;SDS011;10420;48.542;12.270;2023-04-24T15:21:28;7.57;;;2.70;;
20523;SDS011;10420;48.542;12.270;2023-04-24T15:26:29;8.52;;;2.60;;
20523;SDS011;10420;48.542;12.270;2023-04-24T15:31:30;5.47;;;2.50;;
20523;SDS011;10420;48.542;12.270;2023-04-24T15:36:30;2.42;;;1.95;;
20523;SDS011;10420;48.542;12.270;2023-04-24T15:41:31;3.67;;;2.00;;
20523;SDS011;10420;48.542;12.270;2023-04-24T15:46:33;9.83;;;3.67;;
20523;SDS011;10420;48.542;12.270;2023-04-24T15:51:34;5.43;;;2.80;;
20523;SDS011;10420;48.542;12.270;2023-04-24T15:56:35;7.05;;;2.60;;
20523;SDS011;10420;48.542;12.270;2023-04-24T16:01:36;3.67;;;1.90;;
20523;SDS011;10420;48.542;12.270;2023-04-24T16:06:36;3.15;;;1.80;;
20523;SDS011;10420;48.542;12.270;2023-04-24T16:11:37;2.67;;;1.50;;
20523;SDS011;10420;48.542;12.270;2023-04-24T16:16:38;3.40;;;1.30;;
20523;SDS011;10420;48.542;12.270;2023-04-24T16:21:39;2.57;;;1.50;;
20523;SDS011;10420;48.542;12.270;2023-04-24T16:26:40;1.67;;;1.57;;
20523;SDS011;10420;48.542;12.270;2023-04-24T16:31:40;1.67;;;1.53;;
20523;SDS011;10420;48.542;12.270;2023-04-24T16:36:41;3.13;;;1.50;;
20523;SDS011;10420;48.542;12.270;2023-04-24T16:41:42;3.33;;;2.10;;
20523;SDS011;10420;48.542;12.270;2023-04-24T16:46:43;3.47;;;2.40;;
20523;SDS011;10420;48.542;12.270;2023-04-24T16:51:43;7.23;;;3.20;;
20523;SDS011;10420;48.542;12.270;2023-04-24T16:56:44;2.03;;;1.50;;
20523;SDS011;10420;48.542;12.270;2023-04-24T17:01:45;1.80;;;1.43;;
20523;SDS011;10420;48.542;12.270;2023-04-24T17:06:46;7.07;;;1.70;;
20523;SDS011;10420;48.542;12.270;2023-04-24T17:11:46;3.03;;;1.60;;
20523;SDS011;10420;48.542;12.270;2023-04-24T17:16:47;2.20;;;1.60;;
20523;SDS011;10420;48.542;12.270;2023-04-24T17:21:48;4.50;;;1.60;;
20523;SDS011;10420;48.542;12.270;2023-04-24T17:26:49;4.20;;;1.70;;
20523;SDS011;10420;48.542;12.270;2023-04-24T17:31:49;4.53;;;1.70;;
20523;SDS011;10420;48.542;12.270;2023-04-24T17:36:50;2.93;;;1.73;;
20523;SDS011;10420;48.542;12.270;2023-04-24T17:41:51;4.07;;;2.20;;
20523;SDS011;10420;48.542;12.270;2023-04-24T17:46:52;6.47;;;2.10;;
20523;SDS011;10420;48.542;12.270;2023-04-24T17:51:52;2.63;;;1.80;;
20523;SDS011;10420;48.542;12.270;2023-04-24T17:56:53;5.03;;;2.00;;
20523;SDS011;10420;48.542;12.270;2023-04-24T18:01:54;2.43;;;1.80;;
20523;SDS011;10420;48.542;12.270;2023-04-24T18:06:56;2.73;;;1.60;;
20523;SDS011;10420;48.542;12.270;2023-04-24T18:11:57;2.60;;;1.77;;
20523;SDS011;10420;48.542;12.270;2023-04-24T18:16:58;1.70;;;1.37;;
20523;SDS011;10420;48.542;12.270;2023-04-24T18:21:58;12.70;;;2.53;;
20523;SDS011;10420;48.542;12.270;2023-04-24T18:26:59;4.07;;;1.80;;
20523;SDS011;10420;48.542;12.270;2023-04-24T18:32:00;3.10;;;1.93;;
20523;SDS011;10420;48.542;12.270;2023-04-24T18:37:03;5.07;;;2.40;;
20523;SDS011;10420;48.542;12.270;2023-04-24T18:42:03;5.10;;;2.77;;
20523;SDS011;10420;48.542;12.270;2023-04-24T18:47:04;6.50;;;3.33;;
20523;SDS011;10420;48.542;12.270;2023-04-24T18:52:05;5.43;;;2.17;;
20523;SDS011;10420;48.542;12.270;2023-04-24T18:57:05;4.30;;;2.50;;
20523;SDS011;10420;48.542;12.270;2023-04-24T19:02:06;4.90;;;2.73;;
20523;SDS011;10420;48.542;12.270;2023-04-24T19:07:07;3.37;;;2.23;;
20523;SDS011;10420;48.542;12.270;2023-04-24T19:12:07;6.17;;;1.67;;
20523;SDS011;10420;48.542;12.270;2023-04-24T19:17:08;3.10;;;1.80;;
20523;SDS011;10420;48.542;12.270;2023-04-24T19:22:09;6.30;;;2.33;;
20523;SDS011;10420;48.542;12.270;2023-04-24T19:27:11;3.37;;;2.00;;
20523;SDS011;10420;48.542;12.270;2023-04-24T19:32:12;2.60;;;2.03;;
20523;SDS011;10420;48.542;12.270;2023-04-24T19:37:12;5.23;;;2.50;;
20523;SDS011;10420;48.542;12.270;2023-04-24T19:42:13;6.37;;;2.53;;
20523;SDS011;10420;48.542;12.270;2023-04-24T19:47:14;3.80;;;2.53;;
20523;SDS011;10420;48.542;12.270;2023-04-24T19:52:14;2.90;;;2.00;;
20523;SDS011;10420;48.542;12.270;2023-04-24T19:57:15;2.90;;;2.30;;
20523;SDS011;10420;48.542;12.270;2023-04-24T20:02:15;2.73;;;2.00;;
20523;SDS011;10420;48.542;12.270;2023-04-24T20:07:16;3.77;;;1.60;;
20523;SDS011;10420;48.542;12.270;2023-04-24T20:12:17;5.43;;;2.17;;
20523;SDS011;10420;48.542;12.270;2023-04-24T20:17:18;3.30;;;2.00;;
20523;SDS011;10420;48.542;12.270;2023-04-24T20:22:19;2.57;;;2.27;;
20523;SDS011;10420;48.542;12.270;2023-04-24T20:27:19;2.93;;;2.23;;
20523;SDS011;10420;48.542;12.270;2023-04-24T20:32:20;2.50;;;2.10;;
20523;SDS011;10420;48.542;12.270;2023-04-24T20:37:21;4.43;;;2.37;;
20523;SDS011;10420;48.542;12.270;2023-04-24T20:42:23;4.80;;;2.30;;
20523;SDS011;10420;48.542;12.270;2023-04-24T20:47:24;2.50;;;2.23;;
20523;SDS011;10420;48.542;12.270;2023-04-24T20:52:25;3.97;;;2.30;;
20523;SDS011;10420;48.542;12.270;2023-04-24T20:57:26;4.90;;;2.70;;
20523;SDS011;10420;48.542;12.270;2023-04-24T21:02:26;6.33;;;2.93;;
20523;SDS011;10420;48.542;12.270;2023-04-24T21:07:27;3.53;;;2.23;;
20523;SDS011;10420;48.542;12.270;2023-04-24T21:12:28;5.90;;;2.60;;
20523;SDS011;10420;48.542;12.270;2023-04-24T21:17:28;7.33;;;2.90;;
20523;SDS011;10420;48.542;12.270;2023-04-24T21:22:29;5.30;;;2.93;;
20523;SDS011;10420;48.542;12.270;2023-04-24T21:27:30;6.00;;;2.93;;
20523;SDS011;10420;48.542;12.270;2023-04-24T21:32:30;2.57;;;2.30;;
20523;SDS011;10420;48.542;12.270;2023-04-24T21:37:31;3.67;;;2.67;;
20523;SDS011;10420;48.542;12.270;2023-04-24T21:42:34;5.70;;;2.50;;
20523;SDS011;10420;48.542;12.270;2023-04-24T21:47:35;4.77;;;2.80;;
20523;SDS011;10420;48.542;12.270;2023-04-24T21:52:35;6.77;;;2.90;;
20523;SDS011;10420;48.542;12.270;2023-04-24T21:57:36;5.00;;;2.60;;
20523;SDS011;10420;48.542;12.270;2023-04-24T22:02:37;4.10;;;2.60;;
20523;SDS011;10420;48.542;12.270;2023-04-24T22:07:38;5.53;;;2.67;;
20523;SDS011;10420;48.542;12.270;2023-04-24T22:12:39;5.67;;;2.20;;
20523;SDS011;10420;48.542;12.270;2023-04-24T22:17:41;2.83;;;2.17;;
20523;SDS011;10420;48.542;12.270;2023-04-24T22:22:42;5.23;;;2.30;;
20523;SDS011;10420;48.542;12.270;2023-04-24T22:27:43;4.10;;;2.37;;
20523;SDS011;10420;48.542;12.270;2023-04-24T22:32:43;3.90;;;2.07;;
20523;SDS011;10420;48.542;12.270;2023-04-24T22:37:44;3.90;;;2.23;;
20523;SDS011;10420;48.542;12.270;2023-04-24T22:42:47;9.57;;;2.57;;
20523;SDS011;10420;48.542;12.270;2023-04-24T22:47:48;2.63;;;1.97;;
20523;SDS011;10420;48.542;12.270;2023-04-24T22:52:51;3.13;;;2.20;;
20523;SDS011;10420;48.542;12.270;2023-04-24T22:57:52;2.87;;;2.33;;
20523;SDS011;10420;48.542;12.270;2023-04-24T23:02:53;3.20;;;2.23;;
20523;SDS011;10420;48.542;12.270;2023-04-24T23:07:54;3.80;;;2.40;;
20523;SDS011;10420;48.542;12.270;2023-04-24T23:12:55;3.47;;;2.40;;
20523;SDS011;10420;48.542;12.270;2023-04-24T23:17:56;3.53;;;2.33;;
20523;SDS011;10420;48.542;12.270;2023-04-24T23:22:56;5.43;;;2.80;;
20523;SDS011;10420;48.542;12.270;2023-04-24T23:27:57;2.93;;;2.33;;
20523;SDS011;10420;48.542;12.270;2023-04-24T23:32:58;6.30;;;2.77;;
20523;SDS011;10420;48.542;12.270;2023-04-24T23:37:59;4.07;;;1.97;;
20523;SDS011;10420;48.542;12.270;2023-04-24T23:42:59;5.40;;;2.37;;
20523;SDS011;10420;48.542;12.270;2023-04-24T23:48:00;3.07;;;2.40;;
20523;SDS011;10420;48.542;12.270;2023-04-24T23:53:01;3.57;;;2.90;;
20523;SDS011;10420;48.542;12.270;2023-04-24T23:58:02;6.47;;;2.87;;
